createdAt,value
2018-01-08T13:25:36.964Z,938.57
2018-01-08T13:26:36.957Z,938.61
2018-01-08T13:27:36.953Z,938.69
2018-01-08T13:28:36.945Z,938.71
2018-01-08T13:29:36.942Z,938.71
2018-01-08T13:30:36.937Z,938.71
2018-01-08T13:31:36.930Z,938.67
2018-01-08T13:32:36.922Z,938.70
2018-01-08T13:33:36.919Z,938.65
2018-01-08T13:34:36.912Z,938.61
2018-01-08T13:35:36.909Z,938.63
2018-01-08T13:36:36.900Z,938.62
2018-01-08T13:37:36.894Z,938.59
2018-01-08T13:38:36.890Z,938.59
2018-01-08T13:39:36.885Z,938.56
2018-01-08T13:40:36.878Z,938.54
2018-01-08T13:41:36.878Z,938.58
2018-01-08T13:42:36.870Z,938.58
2018-01-08T13:43:36.861Z,938.63
2018-01-08T13:44:36.855Z,938.69
2018-01-08T13:45:36.851Z,938.67
2018-01-08T13:46:36.850Z,938.69
2018-01-08T13:47:36.839Z,938.67
2018-01-08T13:48:36.834Z,938.65
2018-01-08T13:49:36.828Z,938.57
2018-01-08T13:50:36.824Z,938.57
2018-01-08T13:51:36.817Z,938.61
2018-01-08T13:52:36.818Z,938.61
2018-01-08T13:53:36.806Z,938.59
2018-01-08T13:54:36.801Z,938.58
2018-01-08T13:55:36.796Z,938.54
2018-01-08T13:56:36.792Z,938.58
2018-01-08T13:57:36.786Z,938.48
2018-01-08T13:58:36.780Z,938.45
2018-01-08T13:59:36.776Z,938.40
2018-01-08T14:00:36.769Z,938.34
2018-01-08T14:01:36.764Z,938.33
2018-01-08T14:02:36.759Z,938.41
2018-01-08T14:03:36.754Z,938.40
2018-01-08T14:04:36.748Z,938.45
2018-01-08T14:05:36.743Z,938.43
2018-01-08T14:06:36.742Z,938.35
2018-01-08T14:07:36.735Z,938.30
2018-01-08T14:08:36.728Z,938.28
2018-01-08T14:09:36.724Z,938.27
2018-01-08T14:10:36.718Z,938.20
2018-01-08T14:11:36.714Z,938.20
2018-01-08T14:12:36.709Z,938.19
2018-01-08T14:13:36.704Z,938.21
2018-01-08T14:14:36.699Z,938.20
2018-01-08T14:15:36.693Z,938.33
2018-01-08T14:16:36.688Z,938.35
2018-01-08T14:17:36.682Z,938.36
2018-01-08T14:18:36.677Z,938.36
2018-01-08T14:19:36.671Z,938.35
2018-01-08T14:20:36.667Z,938.32
2018-01-08T14:21:36.661Z,938.33
2018-01-08T14:22:36.656Z,938.28
2018-01-08T14:23:36.651Z,938.31
2018-01-08T14:24:36.646Z,938.24
2018-01-08T14:25:36.640Z,938.26
2018-01-08T14:26:36.635Z,938.29
2018-01-08T14:27:36.631Z,938.29
2018-01-08T14:28:36.627Z,938.26
2018-01-08T14:29:36.621Z,938.25
2018-01-08T14:30:36.616Z,938.25
2018-01-08T14:31:36.610Z,938.23
2018-01-08T14:32:36.610Z,938.26
2018-01-08T14:33:36.598Z,938.24
2018-01-08T14:34:36.594Z,938.24
2018-01-08T14:35:36.588Z,938.26
2018-01-08T14:36:36.583Z,938.23
2018-01-08T14:37:36.579Z,938.33
2018-01-08T14:38:36.585Z,938.28
2018-01-08T14:39:36.568Z,938.26
2018-01-08T14:40:36.562Z,938.29
2018-01-08T14:41:36.557Z,938.32
2018-01-08T14:42:36.553Z,938.27
2018-01-08T14:43:36.549Z,938.22
2018-01-08T14:44:36.542Z,938.21
2018-01-08T14:45:36.537Z,938.22
2018-01-08T14:46:36.533Z,938.25
2018-01-08T14:47:36.528Z,938.27
2018-01-08T14:48:36.522Z,938.26
2018-01-08T14:49:36.517Z,938.33
2018-01-08T14:50:36.512Z,938.31
2018-01-08T14:51:36.509Z,938.32
2018-01-08T14:52:36.500Z,938.27
2018-01-08T14:53:36.496Z,938.25
2018-01-08T14:54:36.491Z,938.22
2018-01-08T14:55:36.486Z,938.25
2018-01-08T14:56:36.481Z,938.27
2018-01-08T14:57:36.476Z,938.28
2018-01-08T14:58:36.470Z,938.30
2018-01-08T14:59:36.467Z,938.31
2018-01-08T15:00:36.460Z,938.37
2018-01-08T15:01:36.455Z,938.37
2018-01-08T15:02:36.450Z,938.32
2018-01-08T15:03:36.464Z,938.27
2018-01-08T15:04:36.438Z,938.25
2018-01-08T15:05:36.434Z,938.22
2018-01-08T15:06:36.428Z,938.26
2018-01-08T15:07:36.475Z,938.27
2018-01-08T15:08:36.417Z,938.23
2018-01-08T15:09:36.412Z,938.25
2018-01-08T15:10:36.407Z,938.21
2018-01-08T15:11:36.403Z,938.26
2018-01-08T15:12:36.397Z,938.28
2018-01-08T15:13:36.391Z,938.29
2018-01-08T15:14:36.388Z,938.32
2018-01-08T15:15:36.382Z,938.28
2018-01-08T15:16:36.378Z,938.36
2018-01-08T15:17:36.370Z,938.40
2018-01-08T15:18:36.366Z,938.38
2018-01-08T15:19:36.361Z,938.32
2018-01-08T15:20:36.355Z,938.26
2018-01-08T15:21:36.350Z,938.33
2018-01-08T15:22:36.345Z,938.34
2018-01-08T15:23:36.338Z,938.42
2018-01-08T15:24:36.333Z,938.45
2018-01-08T15:25:36.327Z,938.55
2018-01-08T15:26:36.321Z,938.56
2018-01-08T15:27:36.317Z,938.57
2018-01-08T15:28:36.310Z,938.55
2018-01-08T15:29:36.304Z,938.48
2018-01-08T15:30:36.299Z,938.41
2018-01-08T15:31:36.295Z,938.42
2018-01-08T15:32:36.288Z,938.41
2018-01-08T15:33:36.284Z,938.38
2018-01-08T15:34:36.276Z,938.42
2018-01-08T15:35:36.272Z,938.45
2018-01-08T15:36:36.265Z,938.43
2018-01-08T15:37:36.259Z,938.47
2018-01-08T15:38:36.254Z,938.46
2018-01-08T15:39:36.248Z,938.54
2018-01-08T15:40:36.242Z,938.55
2018-01-08T15:41:36.236Z,938.48
2018-01-08T15:42:36.231Z,938.58
2018-01-08T15:43:36.225Z,938.51
2018-01-08T15:44:36.218Z,938.44
2018-01-08T15:45:36.214Z,938.48
2018-01-08T15:46:36.209Z,938.48
2018-01-08T15:47:36.203Z,938.42
2018-01-08T15:48:36.195Z,938.42
2018-01-08T15:49:36.190Z,938.41
2018-01-08T15:50:36.184Z,938.38
2018-01-08T15:51:36.182Z,938.32
2018-01-08T15:52:36.174Z,938.35
2018-01-08T15:53:36.168Z,938.36
2018-01-08T15:54:36.163Z,938.42
2018-01-08T15:55:36.158Z,938.48
2018-01-08T15:56:36.150Z,938.54
2018-01-08T15:57:36.144Z,938.55
2018-01-08T15:58:36.140Z,938.55
2018-01-08T15:59:36.163Z,938.40
2018-01-08T16:00:36.200Z,938.35
2018-01-08T16:01:36.122Z,938.24
2018-01-08T16:02:36.286Z,938.22
2018-01-08T16:03:36.111Z,938.19
2018-01-08T16:04:36.108Z,938.28
2018-01-08T16:05:36.099Z,938.34
2018-01-08T16:06:36.094Z,938.39
2018-01-08T16:07:36.093Z,938.33
2018-01-08T16:08:36.082Z,938.39
2018-01-08T16:09:36.076Z,938.40
2018-01-08T16:10:36.071Z,938.50
2018-01-08T16:11:36.064Z,938.69
2018-01-08T16:12:36.059Z,938.67
2018-01-08T16:13:36.053Z,938.68
2018-01-08T16:14:36.049Z,938.57
2018-01-08T16:15:36.043Z,938.47
2018-01-08T16:16:36.037Z,938.50
2018-01-08T16:17:36.031Z,938.55
2018-01-08T16:18:36.025Z,938.47
2018-01-08T16:19:36.021Z,938.46
2018-01-08T16:20:36.012Z,938.40
2018-01-08T16:21:36.008Z,938.47
2018-01-08T16:22:36.002Z,938.57
2018-01-08T16:23:36.003Z,938.58
2018-01-08T16:24:35.992Z,938.55
2018-01-08T16:25:35.986Z,938.54
2018-01-08T16:26:35.986Z,938.49
2018-01-08T16:27:36.009Z,938.51
2018-01-08T16:28:35.968Z,938.50
2018-01-08T16:29:35.963Z,938.52
2018-01-08T16:30:35.957Z,938.57
2018-01-08T16:31:35.952Z,938.56
2018-01-08T16:32:35.945Z,938.60
2018-01-08T16:33:35.940Z,938.46
2018-01-08T16:34:35.934Z,938.39
2018-01-08T16:35:35.929Z,938.50
2018-01-08T16:36:35.928Z,938.47
2018-01-08T16:37:35.917Z,938.41
2018-01-08T16:38:35.912Z,938.46
2018-01-08T16:39:35.907Z,938.45
2018-01-08T16:40:35.899Z,938.37
2018-01-08T16:41:35.932Z,938.43
2018-01-08T16:42:35.890Z,938.45
2018-01-08T16:43:35.883Z,938.30
2018-01-08T16:44:35.877Z,938.42
2018-01-08T16:45:35.872Z,938.47
2018-01-08T16:46:35.866Z,938.45
2018-01-08T16:47:35.862Z,938.45
2018-01-08T16:48:35.853Z,938.58
2018-01-08T16:49:35.849Z,938.51
2018-01-08T16:50:35.844Z,938.44
2018-01-08T16:51:35.839Z,938.44
2018-01-08T16:52:35.832Z,938.47
2018-01-08T16:53:35.827Z,938.50
2018-01-08T16:54:35.821Z,938.47
2018-01-08T16:55:35.818Z,938.45
2018-01-08T16:56:35.810Z,938.40
2018-01-08T16:57:35.804Z,938.38
2018-01-08T16:58:36.084Z,938.35
2018-01-08T16:59:35.793Z,938.39
2018-01-08T17:00:35.787Z,938.40
2018-01-08T17:01:35.783Z,938.37
2018-01-08T17:02:35.776Z,938.40
2018-01-08T17:03:35.769Z,938.36
2018-01-08T17:04:35.763Z,938.34
2018-01-08T17:05:35.758Z,938.41
2018-01-08T17:06:35.751Z,938.43
2018-01-08T17:07:35.746Z,938.36
2018-01-08T17:08:35.739Z,938.35
2018-01-08T17:09:35.734Z,938.23
2018-01-08T17:10:35.728Z,938.26
2018-01-08T17:11:35.723Z,938.30
2018-01-08T17:12:35.717Z,938.38
2018-01-08T17:13:35.711Z,938.44
2018-01-08T17:14:35.705Z,938.44
2018-01-08T17:15:35.700Z,938.36
2018-01-08T17:16:35.694Z,938.38
2018-01-08T17:17:35.688Z,938.37
2018-01-08T17:18:35.682Z,938.35
2018-01-08T17:19:35.677Z,938.26
2018-01-08T17:20:35.670Z,938.29
2018-01-08T17:21:35.664Z,938.18
2018-01-08T17:22:35.658Z,938.08
2018-01-08T17:23:35.653Z,938.05
2018-01-08T17:24:35.647Z,938.06
2018-01-08T17:25:35.641Z,938.19
2018-01-08T17:26:35.636Z,938.27
2018-01-08T17:27:35.629Z,938.21
2018-01-08T17:28:35.624Z,938.13
2018-01-08T17:29:35.617Z,937.99
2018-01-08T17:30:35.613Z,937.96
2018-01-08T17:31:35.605Z,938.11
2018-01-08T17:32:35.599Z,937.98
2018-01-08T17:33:35.593Z,937.99
2018-01-08T17:34:35.589Z,938.17
2018-01-08T17:35:35.583Z,938.07
2018-01-08T17:36:35.577Z,938.13
2018-01-08T17:37:35.571Z,938.06
2018-01-08T17:38:35.564Z,938.04
2018-01-08T17:39:35.559Z,938.11
2018-01-08T17:40:35.553Z,937.97
2018-01-08T17:41:35.548Z,938.07
2018-01-08T17:42:35.541Z,938.12
2018-01-08T17:43:35.537Z,938.07
2018-01-08T17:44:35.529Z,938.05
2018-01-08T17:45:35.524Z,938.13
2018-01-08T17:46:35.519Z,938.17
2018-01-08T17:47:35.513Z,938.19
2018-01-08T17:48:35.507Z,938.14
2018-01-08T17:49:35.501Z,938.05
2018-01-08T17:50:35.494Z,938.05
2018-01-08T17:51:35.487Z,937.99
2018-01-08T17:52:35.482Z,937.94
2018-01-08T17:53:35.476Z,937.99
2018-01-08T17:54:35.469Z,938.24
2018-01-08T17:55:35.464Z,938.24
2018-01-08T17:56:35.492Z,938.20
2018-01-08T17:57:35.452Z,938.22
2018-01-08T17:58:35.445Z,938.27
2018-01-08T17:59:35.443Z,938.32
2018-01-08T18:00:35.433Z,938.23
2018-01-08T18:01:35.427Z,938.17
2018-01-08T18:02:35.422Z,938.23
2018-01-08T18:03:35.417Z,938.13
2018-01-08T18:04:35.410Z,938.13
2018-01-08T18:05:35.403Z,938.11
2018-01-08T18:06:35.396Z,937.99
2018-01-08T18:07:35.391Z,938.16
2018-01-08T18:08:35.405Z,938.25
2018-01-08T18:09:35.378Z,938.22
2018-01-08T18:10:35.372Z,938.15
2018-01-08T18:11:35.366Z,938.26
2018-01-08T18:12:35.365Z,938.38
2018-01-08T18:13:35.633Z,938.15
2018-01-08T18:14:35.351Z,938.14
2018-01-08T18:15:35.341Z,938.17
2018-01-08T18:16:35.334Z,938.26
2018-01-08T18:17:35.329Z,938.24
2018-01-08T18:18:35.323Z,938.13
2018-01-08T18:19:35.318Z,938.17
2018-01-08T18:20:35.310Z,938.18
2018-01-08T18:21:35.305Z,938.08
2018-01-08T18:22:35.300Z,938.08
2018-01-08T18:23:35.295Z,938.25
2018-01-08T18:24:35.290Z,938.29
2018-01-08T18:25:35.283Z,938.23
2018-01-08T18:26:35.276Z,938.25
2018-01-08T18:27:35.268Z,938.28
2018-01-08T18:28:35.262Z,938.30
2018-01-08T18:29:35.256Z,938.26
2018-01-08T18:30:35.250Z,938.27
2018-01-08T18:31:35.244Z,938.27
2018-01-08T18:32:35.244Z,938.26
2018-01-08T18:33:35.232Z,938.25
2018-01-08T18:34:35.226Z,938.26
2018-01-08T18:35:35.220Z,938.25
2018-01-08T18:36:35.216Z,938.28
2018-01-08T18:37:35.209Z,938.31
2018-01-08T18:38:35.202Z,938.19
2018-01-08T18:39:35.196Z,938.15
2018-01-08T18:40:35.191Z,938.25
2018-01-08T18:41:35.184Z,938.26
2018-01-08T18:42:35.178Z,938.26
2018-01-08T18:43:35.172Z,938.23
2018-01-08T18:44:35.166Z,938.22
2018-01-08T18:45:35.159Z,938.13
2018-01-08T18:46:35.155Z,938.00
2018-01-08T18:47:35.148Z,938.02
2018-01-08T18:48:35.427Z,938.11
2018-01-08T18:49:35.137Z,938.18
2018-01-08T18:50:35.130Z,938.10
2018-01-08T18:51:35.124Z,938.03
2018-01-08T18:52:35.117Z,938.04
2018-01-08T18:53:35.112Z,938.11
2018-01-08T18:54:35.104Z,938.11
2018-01-08T18:55:35.101Z,938.20
2018-01-08T18:56:35.094Z,938.14
2018-01-08T18:57:35.088Z,938.11
2018-01-08T18:58:35.080Z,938.13
2018-01-08T18:59:35.075Z,938.10
2018-01-08T19:00:35.068Z,938.11
2018-01-08T19:01:35.062Z,938.13
2018-01-08T19:02:35.057Z,938.04
2018-01-08T19:03:35.051Z,938.17
2018-01-08T19:04:35.044Z,938.23
2018-01-08T19:05:35.037Z,938.24
2018-01-08T19:06:35.031Z,938.29
2018-01-08T19:07:35.027Z,938.32
2018-01-08T19:08:35.019Z,938.28
2018-01-08T19:09:35.013Z,938.18
2018-01-08T19:10:35.007Z,938.13
2018-01-08T19:11:35.002Z,938.23
2018-01-08T19:12:34.995Z,938.17
2018-01-08T19:13:34.989Z,938.19
2018-01-08T19:14:34.982Z,938.12
2018-01-08T19:15:34.978Z,937.96
2018-01-08T19:16:34.969Z,937.90
2018-01-08T19:17:35.009Z,938.01
2018-01-08T19:18:34.958Z,938.10
2018-01-08T19:19:34.953Z,938.04
2018-01-08T19:20:34.947Z,938.00
2018-01-08T19:21:34.940Z,938.19
2018-01-08T19:22:34.934Z,938.24
2018-01-08T19:23:34.928Z,938.25
2018-01-08T19:24:34.925Z,938.08
2018-01-08T19:25:34.916Z,937.97
2018-01-08T19:26:34.910Z,937.97
2018-01-08T19:27:34.904Z,937.96
2018-01-08T19:28:34.898Z,937.94
2018-01-08T19:29:34.892Z,937.92
2018-01-08T19:30:34.886Z,937.95
2018-01-08T19:31:34.878Z,937.90
2018-01-08T19:32:34.873Z,937.89
2018-01-08T19:33:34.867Z,937.95
2018-01-08T19:34:34.860Z,937.81
2018-01-08T19:35:34.855Z,937.87
2018-01-08T19:36:34.848Z,937.96
2018-01-08T19:37:34.842Z,937.72
2018-01-08T19:38:34.837Z,937.80
2018-01-08T19:39:34.830Z,937.84
2018-01-08T19:40:34.827Z,937.91
2018-01-08T19:41:34.818Z,937.93
2018-01-08T19:42:34.812Z,937.96
2018-01-08T19:43:34.834Z,938.04
2018-01-08T19:44:34.799Z,937.97
2018-01-08T19:45:34.794Z,937.91
2018-01-08T19:46:34.788Z,937.72
2018-01-08T19:47:34.783Z,937.84
2018-01-08T19:48:34.775Z,937.92
2018-01-08T19:49:34.769Z,937.82
2018-01-08T19:50:34.764Z,937.82
2018-01-08T19:51:34.757Z,937.76
2018-01-08T19:52:34.750Z,937.89
2018-01-08T19:53:34.744Z,937.90
2018-01-08T19:54:34.740Z,937.84
2018-01-08T19:55:34.735Z,937.85
2018-01-08T19:56:34.727Z,937.83
2018-01-08T19:57:34.720Z,937.65
2018-01-08T19:58:34.715Z,937.73
2018-01-08T19:59:34.708Z,937.84
2018-01-08T20:00:34.701Z,937.87
2018-01-08T20:01:34.695Z,937.84
2018-01-08T20:02:34.691Z,937.90
2018-01-08T20:03:34.684Z,937.85
2018-01-08T20:04:34.678Z,937.71
2018-01-08T20:05:34.672Z,937.71
2018-01-08T20:06:34.666Z,937.67
2018-01-08T20:07:34.660Z,937.70
2018-01-08T20:08:34.652Z,937.75
2018-01-08T20:09:34.646Z,937.77
2018-01-08T20:10:34.642Z,937.77
2018-01-08T20:11:34.636Z,937.78
2018-01-08T20:12:34.627Z,937.76
2018-01-08T20:13:34.622Z,937.73
2018-01-08T20:14:34.617Z,937.69
2018-01-08T20:15:34.611Z,937.69
2018-01-08T20:16:34.603Z,937.68
2018-01-08T20:17:34.597Z,937.70
2018-01-08T20:18:34.591Z,937.67
2018-01-08T20:19:34.587Z,937.70
2018-01-08T20:20:34.579Z,937.69
2018-01-08T20:21:34.575Z,937.69
2018-01-08T20:22:34.568Z,937.60
2018-01-08T20:23:34.562Z,937.61
2018-01-08T20:24:34.554Z,937.69
2018-01-08T20:25:34.549Z,937.71
2018-01-08T20:26:34.543Z,937.69
2018-01-08T20:27:34.537Z,937.68
2018-01-08T20:28:34.528Z,937.66
2018-01-08T20:29:34.524Z,937.60
2018-01-08T20:30:34.518Z,937.57
2018-01-08T20:31:34.511Z,937.61
2018-01-08T20:32:34.505Z,937.59
2018-01-08T20:33:34.499Z,937.54
2018-01-08T20:34:34.493Z,937.56
2018-01-08T20:35:34.487Z,937.63
2018-01-08T20:36:34.479Z,937.71
2018-01-08T20:37:34.474Z,937.61
2018-01-08T20:38:34.468Z,937.52
2018-01-08T20:39:34.463Z,937.56
2018-01-08T20:40:34.456Z,937.55
2018-01-08T20:41:34.454Z,937.63
2018-01-08T20:42:34.443Z,937.73
2018-01-08T20:43:34.437Z,937.66
2018-01-08T20:44:34.430Z,937.66
2018-01-08T20:45:34.425Z,937.66
2018-01-08T20:46:34.419Z,937.59
2018-01-08T20:47:34.413Z,937.47
2018-01-08T20:48:34.406Z,937.54
2018-01-08T20:49:34.400Z,937.60
2018-01-08T20:50:34.395Z,937.51
2018-01-08T20:51:34.388Z,937.51
2018-01-08T20:52:34.382Z,937.59
2018-01-08T20:53:34.375Z,937.37
2018-01-08T20:54:34.370Z,937.32
2018-01-08T20:55:34.364Z,937.57
2018-01-08T20:56:34.357Z,937.46
2018-01-08T20:57:34.351Z,937.29
2018-01-08T20:58:34.345Z,937.28
2018-01-08T20:59:34.338Z,937.58
2018-01-08T21:00:34.333Z,937.24
2018-01-08T21:01:34.327Z,937.41
2018-01-08T21:02:34.321Z,937.45
2018-01-08T21:03:34.315Z,937.39
2018-01-08T21:04:34.310Z,937.54
2018-01-08T21:05:34.301Z,937.36
2018-01-08T21:06:34.296Z,937.46
2018-01-08T21:07:34.290Z,937.50
2018-01-08T21:08:34.282Z,937.47
2018-01-08T21:09:34.276Z,937.45
2018-01-08T21:10:34.271Z,937.47
2018-01-08T21:11:34.263Z,937.50
2018-01-08T21:12:34.256Z,937.51
2018-01-08T21:13:34.251Z,937.49
2018-01-08T21:14:34.244Z,937.36
2018-01-08T21:15:34.239Z,937.44
2018-01-08T21:16:34.231Z,937.46
2018-01-08T21:17:34.227Z,937.56
2018-01-08T21:18:34.219Z,937.55
2018-01-08T21:19:34.214Z,937.41
2018-01-08T21:20:34.207Z,937.40
2018-01-08T21:21:34.208Z,937.40
2018-01-08T21:22:34.196Z,937.52
2018-01-08T21:23:34.190Z,937.37
2018-01-08T21:24:34.182Z,937.33
2018-01-08T21:25:34.177Z,937.41
2018-01-08T21:26:34.172Z,937.42
2018-01-08T21:27:34.166Z,937.10
2018-01-08T21:28:34.158Z,937.20
2018-01-08T21:29:34.152Z,937.25
2018-01-08T21:30:34.146Z,937.29
2018-01-08T21:31:34.140Z,937.22
2018-01-08T21:32:34.132Z,937.03
2018-01-08T21:33:34.127Z,937.13
2018-01-08T21:34:34.122Z,937.12
2018-01-08T21:35:34.119Z,937.25
2018-01-08T21:36:34.108Z,937.25
2018-01-08T21:37:34.102Z,937.07
2018-01-08T21:38:34.096Z,937.01
2018-01-08T21:39:34.090Z,936.94
2018-01-08T21:40:34.086Z,937.06
2018-01-08T21:41:34.078Z,937.06
2018-01-08T21:42:34.072Z,937.02
2018-01-08T21:43:34.064Z,936.96
2018-01-08T21:44:34.059Z,936.93
2018-01-08T21:45:34.052Z,936.97
2018-01-08T21:46:34.047Z,936.86
2018-01-08T21:47:34.044Z,936.83
2018-01-08T21:48:34.033Z,936.95
2018-01-08T21:49:34.027Z,936.92
2018-01-08T21:50:34.063Z,936.87
2018-01-08T21:51:34.017Z,936.89
2018-01-08T21:52:34.009Z,936.84
2018-01-08T21:53:34.003Z,936.83
2018-01-08T21:54:33.998Z,936.83
2018-01-08T21:55:33.992Z,936.75
2018-01-08T21:56:33.985Z,936.76
2018-01-08T21:57:33.978Z,936.84
2018-01-08T21:58:33.974Z,936.82
2018-01-08T21:59:33.966Z,936.76
2018-01-08T22:00:33.959Z,936.74
2018-01-08T22:01:33.954Z,936.74
2018-01-08T22:02:33.948Z,936.74
2018-01-08T22:03:33.942Z,936.72
2018-01-08T22:04:33.935Z,936.81
2018-01-08T22:05:33.929Z,936.67
2018-01-08T22:06:33.922Z,936.43
2018-01-08T22:07:33.918Z,936.49
2018-01-08T22:08:33.909Z,936.53
2018-01-08T22:09:33.906Z,936.69
2018-01-08T22:10:33.899Z,936.66
2018-01-08T22:11:33.892Z,936.57
2018-01-08T22:12:33.886Z,936.55
2018-01-08T22:13:33.880Z,936.54
2018-01-08T22:14:33.873Z,936.58
2018-01-08T22:15:33.874Z,936.51
2018-01-08T22:16:33.862Z,936.43
2018-01-08T22:17:33.855Z,936.60
2018-01-08T22:18:33.850Z,936.58
2018-01-08T22:19:33.844Z,936.44
2018-01-08T22:20:33.836Z,936.43
2018-01-08T22:21:33.831Z,936.48
2018-01-08T22:22:33.825Z,936.43
2018-01-08T22:23:33.821Z,936.34
2018-01-08T22:24:33.812Z,936.20
2018-01-08T22:25:33.805Z,936.21
2018-01-08T22:26:33.801Z,936.22
2018-01-08T22:27:33.795Z,936.06
2018-01-08T22:28:33.788Z,936.20
2018-01-08T22:29:33.782Z,936.30
2018-01-08T22:30:33.779Z,936.28
2018-01-08T22:31:33.769Z,936.26
2018-01-08T22:32:33.763Z,936.21
2018-01-08T22:33:33.757Z,936.17
2018-01-08T22:34:33.751Z,936.22
2018-01-08T22:35:33.746Z,936.07
2018-01-08T22:36:33.741Z,936.00
2018-01-08T22:37:33.731Z,936.24
2018-01-08T22:38:33.727Z,936.37
2018-01-08T22:39:33.722Z,936.05
2018-01-08T22:40:33.714Z,936.13
2018-01-08T22:41:33.708Z,936.17
2018-01-08T22:42:33.702Z,936.14
2018-01-08T22:43:33.702Z,936.15
2018-01-08T22:44:33.689Z,936.10
2018-01-08T22:45:33.683Z,935.93
2018-01-08T22:46:33.676Z,935.92
2018-01-08T22:47:33.671Z,935.92
2018-01-08T22:48:33.663Z,935.91
2018-01-08T22:49:33.657Z,936.05
2018-01-08T22:50:33.653Z,936.02
2018-01-08T22:51:33.645Z,935.83
2018-01-08T22:52:33.642Z,935.91
2018-01-08T22:53:33.632Z,935.95
2018-01-08T22:54:33.627Z,935.84
2018-01-08T22:55:33.621Z,935.72
2018-01-08T22:56:33.613Z,935.80
2018-01-08T22:57:33.609Z,935.95
2018-01-08T22:58:33.601Z,935.99
2018-01-08T22:59:33.597Z,935.94
2018-01-08T23:00:33.588Z,935.94
2018-01-08T23:01:33.583Z,935.75
2018-01-08T23:02:33.578Z,935.71
2018-01-08T23:03:33.576Z,935.74
2018-01-08T23:04:33.563Z,935.67
2018-01-08T23:05:33.557Z,935.65
2018-01-08T23:06:33.554Z,935.73
2018-01-08T23:07:33.547Z,935.83
2018-01-08T23:08:33.538Z,935.77
2018-01-08T23:09:33.532Z,935.66
2018-01-08T23:10:33.527Z,935.66
2018-01-08T23:11:33.521Z,935.49
2018-01-08T23:12:33.513Z,935.51
2018-01-08T23:13:33.507Z,935.57
2018-01-08T23:14:33.501Z,935.56
2018-01-08T23:15:33.494Z,935.49
2018-01-08T23:16:33.488Z,935.45
2018-01-08T23:17:33.481Z,935.63
2018-01-08T23:18:33.476Z,935.54
2018-01-08T23:19:33.470Z,935.60
2018-01-08T23:20:33.520Z,935.56
2018-01-08T23:21:33.457Z,935.51
2018-01-08T23:22:33.450Z,935.49
2018-01-08T23:23:33.456Z,935.63
2018-01-08T23:24:33.438Z,935.61
2018-01-08T23:25:33.431Z,935.52
2018-01-08T23:26:33.726Z,935.56
2018-01-08T23:27:33.419Z,935.55
2018-01-08T23:28:33.413Z,935.70
2018-01-08T23:29:33.407Z,935.42
2018-01-08T23:30:33.400Z,935.23
2018-01-08T23:31:33.395Z,935.37
2018-01-08T23:32:33.387Z,935.36
2018-01-08T23:33:33.382Z,935.43
2018-01-08T23:34:33.375Z,935.54
2018-01-08T23:35:33.369Z,935.67
2018-01-08T23:36:33.362Z,935.51
2018-01-08T23:37:33.355Z,935.29
2018-01-08T23:38:33.350Z,935.19
2018-01-08T23:39:33.344Z,935.24
2018-01-08T23:40:33.336Z,935.30
2018-01-08T23:41:33.330Z,935.37
2018-01-08T23:42:33.325Z,935.33
2018-01-08T23:43:33.318Z,935.26
2018-01-08T23:44:33.311Z,935.22
2018-01-08T23:45:33.304Z,935.13
2018-01-08T23:46:33.299Z,935.29
2018-01-08T23:47:33.294Z,935.33
2018-01-08T23:48:33.286Z,935.16
2018-01-08T23:49:33.279Z,935.27
2018-01-08T23:50:33.274Z,935.26
2018-01-08T23:51:33.268Z,935.24
2018-01-08T23:52:33.260Z,935.26
2018-01-08T23:53:33.254Z,935.22
2018-01-08T23:54:33.247Z,934.99
2018-01-08T23:55:33.253Z,934.99
2018-01-08T23:56:33.235Z,935.27
2018-01-08T23:57:33.228Z,935.38
2018-01-08T23:58:33.224Z,934.95
2018-01-08T23:59:33.217Z,935.00
